createdAt,value
2023-05-09T00:00:27.436Z,63.88
2023-05-09T00:02:54.004Z,63.83
2023-05-09T00:05:21.228Z,64.51
2023-05-09T00:07:48.091Z,65.12
2023-05-09T00:10:14.482Z,65.33
2023-05-09T00:12:43.028Z,64.23
2023-05-09T00:15:09.710Z,63.77
2023-05-09T00:17:37.948Z,63.70
2023-05-09T00:20:08.664Z,63.91
2023-05-09T00:22:36.051Z,64.20
2023-05-09T00:25:03.282Z,64.89
2023-05-09T00:27:30.190Z,65.07
2023-05-09T00:29:56.596Z,63.92
2023-05-09T00:32:22.852Z,63.37
2023-05-09T00:34:49.823Z,63.30
2023-05-09T00:37:18.586Z,63.89
2023-05-09T00:39:45.537Z,64.42
2023-05-09T00:42:11.873Z,65.20
2023-05-09T00:44:38.154Z,65.08
2023-05-09T00:47:05.266Z,63.69
2023-05-09T00:49:35.925Z,63.24
2023-05-09T00:52:02.406Z,63.47
2023-05-09T00:54:29.191Z,63.72
2023-05-09T00:56:55.549Z,64.29
2023-05-09T00:59:21.971Z,64.68
2023-05-09T01:01:48.336Z,65.25
2023-05-09T01:04:15.962Z,64.01
2023-05-09T01:07:02.305Z,63.26
2023-05-09T01:10:02.127Z,63.64
2023-05-09T01:12:36.682Z,64.08
2023-05-09T01:15:16.205Z,64.33
2023-05-09T01:17:58.108Z,65.25
2023-05-09T01:20:38.444Z,65.08
2023-05-09T01:23:04.733Z,63.79
2023-05-09T01:26:02.698Z,63.55
2023-05-09T01:28:55.035Z,63.57
2023-05-09T01:31:22.336Z,64.22
2023-05-09T01:33:53.438Z,64.85
2023-05-09T01:36:20.802Z,64.99
2023-05-09T01:38:48.484Z,65.11
2023-05-09T01:41:15.665Z,63.91
2023-05-09T01:43:42.259Z,63.65
2023-05-09T01:46:08.799Z,64.07
2023-05-09T01:48:35.591Z,64.70
2023-05-09T01:51:02.073Z,64.89
2023-05-09T01:53:28.715Z,65.66
2023-05-09T01:55:55.478Z,65.85
2023-05-09T01:58:22.116Z,64.95
2023-05-09T02:00:48.525Z,64.36
2023-05-09T02:03:15.325Z,64.24
2023-05-09T02:05:42.032Z,64.84
2023-05-09T02:08:08.363Z,65.18
2023-05-09T02:10:35.467Z,65.77
2023-05-09T02:13:02.314Z,65.89
2023-05-09T02:15:28.786Z,64.91
2023-05-09T02:17:55.448Z,64.65
2023-05-09T02:20:21.821Z,64.60
2023-05-09T02:22:48.249Z,64.34
2023-05-09T02:25:14.923Z,64.57
2023-05-09T02:27:42.824Z,65.41
2023-05-09T02:30:12.433Z,65.96
2023-05-09T02:32:39.477Z,65.06
2023-05-09T02:35:06.491Z,64.82
2023-05-09T02:37:34.902Z,65.04
2023-05-09T02:40:01.252Z,65.47
2023-05-09T02:42:29.517Z,65.69
2023-05-09T02:44:56.226Z,66.56
2023-05-09T02:47:22.585Z,66.59
2023-05-09T02:49:49.060Z,65.33
2023-05-09T02:52:16.284Z,64.49
2023-05-09T02:54:42.744Z,64.25
2023-05-09T02:57:09.156Z,64.80
2023-05-09T02:59:35.915Z,64.96
2023-05-09T03:02:03.036Z,65.43
2023-05-09T03:04:29.918Z,66.03
2023-05-09T03:06:56.293Z,65.08
2023-05-09T03:09:23.886Z,64.55
2023-05-09T03:11:50.298Z,64.62
2023-05-09T03:14:16.722Z,65.03
2023-05-09T03:16:43.087Z,65.57
2023-05-09T03:19:17.085Z,66.49
2023-05-09T03:21:43.713Z,66.48
2023-05-09T03:24:10.396Z,65.39
2023-05-09T03:26:37.015Z,64.92
2023-05-09T03:29:03.652Z,65.00
2023-05-09T03:31:30.102Z,65.30
2023-05-09T03:33:56.865Z,65.76
2023-05-09T03:36:24.800Z,66.17
2023-05-09T03:38:51.394Z,66.18
2023-05-09T03:41:20.115Z,64.92
2023-05-09T03:43:46.832Z,64.43
2023-05-09T03:46:13.391Z,63.95
2023-05-09T03:48:40.487Z,64.11
2023-05-09T03:51:06.977Z,64.46
2023-05-09T03:53:35.176Z,65.18
2023-05-09T03:56:01.637Z,65.14
2023-05-09T03:58:30.703Z,64.24
2023-05-09T04:00:57.571Z,63.71
2023-05-09T04:03:24.265Z,63.98
2023-05-09T04:05:51.391Z,64.17
2023-05-09T04:08:31.897Z,64.52
2023-05-09T04:10:58.340Z,64.53
2023-05-09T04:13:25.224Z,64.86
2023-05-09T04:15:51.764Z,62.86
2023-05-09T04:18:18.434Z,62.85
2023-05-09T04:20:45.779Z,62.73
2023-05-09T04:23:12.445Z,62.81
2023-05-09T04:25:39.478Z,63.41
2023-05-09T04:28:05.940Z,63.83
2023-05-09T04:30:32.366Z,64.05
2023-05-09T04:32:58.791Z,64.36
2023-05-09T04:35:26.523Z,62.03
2023-05-09T04:37:53.252Z,60.74
2023-05-09T04:40:20.332Z,59.47
2023-05-09T04:42:54.293Z,59.58
2023-05-09T04:45:22.823Z,58.40
2023-05-09T04:47:49.156Z,58.15
2023-05-09T04:50:16.002Z,57.21
2023-05-09T04:52:42.481Z,57.05
2023-05-09T04:55:09.074Z,56.82
2023-05-09T04:57:38.845Z,54.20
2023-05-09T05:00:10.915Z,52.09
2023-05-09T05:02:38.441Z,50.78
2023-05-09T05:05:11.503Z,50.28
2023-05-09T05:07:40.545Z,49.56
2023-05-09T05:10:08.448Z,49.06
2023-05-09T05:12:36.421Z,48.76
2023-05-09T05:15:04.390Z,47.78
2023-05-09T05:17:31.952Z,47.36
2023-05-09T05:19:59.110Z,47.75
2023-05-09T05:22:26.414Z,46.66
2023-05-09T05:24:52.718Z,47.14
2023-05-09T05:27:19.231Z,47.81
2023-05-09T05:29:45.512Z,45.75
2023-05-09T05:32:11.975Z,45.50
2023-05-09T05:34:38.901Z,45.89
2023-05-09T05:37:05.332Z,45.23
2023-05-09T05:39:31.965Z,45.09
2023-05-09T05:41:58.292Z,44.45
2023-05-09T05:44:25.098Z,40.39
2023-05-09T05:46:51.391Z,40.35
2023-05-09T05:49:18.144Z,39.59
2023-05-09T05:51:44.368Z,40.74
2023-05-09T05:54:10.983Z,39.83
2023-05-09T05:56:37.309Z,40.72
2023-05-09T05:59:04.308Z,37.78
2023-05-09T06:01:30.861Z,38.73
2023-05-09T06:03:57.466Z,39.43
2023-05-09T06:06:28.580Z,33.94
2023-05-09T06:08:55.162Z,31.38
2023-05-09T06:11:21.611Z,32.28
2023-05-09T06:13:49.095Z,32.56
2023-05-09T06:16:19.868Z,33.52
2023-05-09T06:18:48.606Z,33.52
2023-05-09T06:21:15.022Z,34.33
2023-05-09T06:23:51.081Z,34.19
2023-05-09T06:26:27.548Z,34.00
2023-05-09T06:28:53.898Z,32.83
2023-05-09T06:31:20.202Z,31.75
2023-05-09T06:33:46.573Z,30.86
2023-05-09T06:36:12.847Z,30.80
2023-05-09T06:38:39.091Z,28.33
2023-05-09T06:41:05.544Z,28.07
2023-05-09T06:43:32.003Z,29.02
2023-05-09T06:45:58.517Z,28.54
2023-05-09T06:48:25.404Z,29.99
2023-05-09T06:50:51.696Z,27.41
2023-05-09T06:53:17.960Z,28.82
2023-05-09T06:55:44.275Z,29.15
2023-05-09T06:58:11.490Z,27.73
2023-05-09T07:00:37.890Z,25.35
2023-05-09T07:03:06.622Z,26.31
2023-05-09T07:05:34.101Z,27.91
2023-05-09T07:08:00.794Z,25.93
2023-05-09T07:10:27.471Z,26.72
2023-05-09T07:12:53.924Z,24.54
2023-05-09T07:15:32.453Z,25.67
2023-05-09T07:18:03.725Z,27.39
2023-05-09T07:20:30.055Z,23.38
2023-05-09T07:22:57.749Z,25.45
2023-05-09T07:25:24.106Z,25.15
2023-05-09T07:27:50.413Z,26.23
2023-05-09T07:30:16.939Z,25.66
2023-05-09T07:32:43.902Z,23.83
2023-05-09T07:35:10.365Z,23.00
2023-05-09T07:37:36.955Z,24.24
2023-05-09T07:40:05.342Z,26.41
2023-05-09T07:42:34.487Z,24.36
2023-05-09T07:45:00.744Z,23.74
2023-05-09T14:15:00.465Z,26.42
2023-05-09T14:17:27.506Z,26.62
2023-05-09T14:19:54.511Z,26.62
2023-05-09T14:22:21.640Z,26.43
2023-05-09T14:24:48.794Z,26.73
2023-05-09T14:27:16.512Z,27.00
2023-05-09T14:29:45.038Z,27.45
2023-05-09T14:32:12.950Z,27.69
2023-05-09T14:34:39.957Z,27.37
2023-05-09T14:37:13.606Z,27.36
2023-05-09T14:39:42.157Z,26.87
2023-05-09T14:42:11.405Z,27.28
2023-05-09T14:44:38.807Z,27.99
2023-05-09T14:47:06.088Z,27.69
2023-05-09T14:49:33.177Z,26.39
2023-05-09T14:52:00.232Z,26.18
2023-05-09T14:54:27.383Z,26.00
2023-05-09T14:56:54.567Z,25.97
2023-05-09T14:59:21.475Z,24.63
2023-05-09T15:01:48.804Z,24.98
2023-05-09T15:04:15.769Z,24.67
2023-05-09T15:06:43.164Z,25.73
2023-05-09T15:09:10.339Z,26.40
2023-05-09T15:11:47.892Z,25.76
2023-05-09T15:14:16.826Z,26.87
2023-05-09T15:16:44.221Z,26.82
2023-05-09T15:19:11.433Z,27.40
2023-05-09T15:21:38.460Z,27.30
2023-05-09T15:24:05.910Z,27.58
2023-05-09T15:26:32.984Z,27.98
2023-05-09T15:29:00.009Z,28.00
2023-05-09T15:31:32.365Z,28.44
2023-05-09T15:33:59.989Z,28.44
2023-05-09T15:36:29.546Z,28.65
2023-05-09T15:38:56.627Z,28.47
2023-05-09T15:41:23.587Z,28.52
2023-05-09T15:43:51.039Z,28.81
2023-05-09T15:46:18.212Z,28.96
2023-05-09T15:48:45.291Z,28.76
2023-05-09T15:51:13.971Z,27.94
2023-05-09T15:53:40.989Z,27.56
2023-05-09T15:56:08.530Z,26.70
2023-05-09T15:58:36.848Z,27.30
2023-05-09T16:01:06.249Z,27.22
2023-05-09T16:03:35.038Z,26.83
2023-05-09T16:06:02.378Z,27.08
2023-05-09T16:08:29.484Z,27.17
2023-05-09T16:10:56.642Z,27.68
2023-05-09T16:13:24.216Z,28.13
2023-05-09T16:15:51.417Z,28.08
2023-05-09T16:20:38.435Z,28.54
2023-05-09T16:23:05.522Z,29.39
2023-05-09T16:25:35.202Z,29.03
2023-05-09T16:28:02.827Z,29.55
2023-05-09T16:30:30.237Z,29.65
2023-05-09T16:32:57.252Z,29.46
2023-05-09T16:35:24.280Z,29.29
2023-05-09T16:37:51.501Z,28.21
2023-05-09T16:40:18.934Z,28.77
2023-05-09T16:42:45.949Z,29.06
2023-05-09T16:45:12.938Z,29.50
2023-05-09T16:47:40.040Z,28.70
2023-05-09T16:50:07.505Z,28.99
2023-05-09T16:52:34.732Z,28.80
2023-05-09T16:55:01.838Z,28.71
2023-05-09T16:57:28.899Z,28.74
2023-05-09T16:59:55.823Z,29.15
2023-05-09T17:02:22.921Z,29.38
2023-05-09T17:04:49.942Z,29.53
2023-05-09T17:07:17.225Z,29.74
2023-05-09T17:09:45.380Z,30.25
2023-05-09T17:12:17.544Z,30.50
2023-05-09T17:14:45.731Z,30.84
2023-05-09T17:17:13.227Z,30.80
2023-05-09T17:19:40.908Z,31.23
2023-05-09T17:22:08.741Z,31.61
2023-05-09T17:24:35.875Z,31.79
2023-05-09T17:27:02.932Z,32.13
2023-05-09T17:29:31.088Z,32.26
2023-05-09T17:32:00.992Z,32.33
2023-05-09T17:34:28.469Z,32.34
2023-05-09T17:36:56.481Z,32.48
2023-05-09T17:39:23.858Z,32.22
2023-05-09T17:41:51.010Z,32.46
2023-05-09T17:44:17.970Z,32.43
2023-05-09T17:46:45.016Z,32.76
2023-05-09T17:49:14.118Z,32.99
2023-05-09T17:51:41.416Z,33.36
2023-05-09T17:54:08.437Z,33.79
2023-05-09T17:56:35.676Z,35.23
2023-05-09T17:59:02.877Z,35.68
2023-05-09T18:01:29.949Z,36.91
2023-05-09T18:03:57.086Z,37.66
2023-05-09T18:06:24.417Z,37.79
2023-05-09T18:08:51.505Z,38.65
2023-05-09T18:11:18.520Z,38.83
2023-05-09T18:13:45.483Z,38.11
2023-05-09T18:16:12.529Z,38.86
2023-05-09T18:18:39.500Z,40.21
2023-05-09T18:21:08.111Z,39.90
2023-05-09T18:23:35.088Z,39.87
2023-05-09T18:26:02.158Z,41.68
2023-05-09T18:28:29.593Z,42.78
2023-05-09T18:31:00.599Z,43.23
2023-05-09T18:33:28.375Z,42.84
2023-05-09T18:35:55.692Z,41.65
2023-05-09T18:38:23.029Z,44.22
2023-05-09T18:40:52.371Z,44.89
2023-05-09T18:43:21.654Z,46.54
2023-05-09T18:45:49.279Z,47.55
2023-05-09T18:48:17.109Z,46.88
2023-05-09T18:50:44.103Z,46.55
2023-05-09T18:53:11.052Z,47.26
2023-05-09T18:55:38.631Z,47.95
2023-05-09T18:58:06.503Z,48.25
2023-05-09T19:00:34.926Z,48.05
2023-05-09T19:03:02.190Z,48.86
2023-05-09T19:05:29.891Z,51.16
2023-05-09T19:07:57.702Z,50.49
2023-05-09T19:10:24.844Z,51.54
2023-05-09T19:12:52.216Z,52.07
2023-05-09T19:15:20.067Z,52.20
2023-05-09T19:17:47.831Z,53.50
2023-05-09T19:20:15.951Z,54.04
2023-05-09T19:22:48.230Z,54.33
2023-05-09T19:25:17.831Z,54.82
2023-05-09T19:27:45.696Z,54.87
2023-05-09T19:30:17.048Z,54.51
2023-05-09T19:32:45.225Z,55.22
2023-05-09T19:35:13.542Z,55.04
2023-05-09T19:37:40.945Z,54.83
2023-05-09T19:40:08.642Z,56.06
2023-05-09T19:42:37.881Z,56.44
2023-05-09T19:45:05.413Z,56.42
2023-05-09T19:47:33.805Z,57.20
2023-05-09T19:50:02.159Z,57.10
2023-05-09T19:52:30.087Z,55.46
2023-05-09T19:54:57.834Z,54.10
2023-05-09T19:57:25.321Z,54.83
2023-05-09T19:59:53.452Z,55.31
2023-05-09T20:02:20.435Z,55.69
2023-05-09T20:04:49.944Z,55.36
2023-05-09T20:07:17.430Z,56.24
2023-05-09T20:09:44.484Z,55.91
2023-05-09T20:12:11.630Z,57.01
2023-05-09T20:14:38.901Z,57.13
2023-05-09T20:17:06.608Z,57.38
2023-05-09T20:19:34.313Z,57.90
2023-05-09T20:22:01.887Z,57.45
2023-05-09T20:24:31.361Z,58.18
2023-05-09T20:26:58.389Z,57.71
2023-05-09T20:29:26.476Z,56.10
2023-05-09T20:31:53.488Z,55.42
2023-05-09T20:34:22.200Z,55.14
2023-05-09T20:36:52.299Z,55.36
2023-05-09T20:39:19.990Z,56.63
2023-05-09T20:41:47.876Z,56.13
2023-05-09T20:44:15.265Z,56.40
2023-05-09T20:46:42.346Z,56.82
2023-05-09T20:49:09.475Z,58.07
2023-05-09T20:51:36.738Z,59.36
2023-05-09T20:54:04.038Z,58.60
2023-05-09T20:56:31.938Z,59.47
2023-05-09T20:59:01.121Z,60.05
2023-05-09T21:01:29.345Z,59.32
2023-05-09T21:03:56.337Z,57.85
2023-05-09T21:06:23.630Z,57.14
2023-05-09T21:08:51.314Z,56.69
2023-05-09T21:11:19.475Z,57.49
2023-05-09T21:13:46.513Z,57.79
2023-05-09T21:16:13.543Z,58.71
2023-05-09T21:18:40.797Z,59.54
2023-05-09T21:21:08.408Z,59.76
2023-05-09T21:23:36.017Z,60.52
2023-05-09T21:26:03.059Z,60.24
2023-05-09T21:28:30.558Z,57.16
2023-05-09T21:30:57.803Z,56.00
2023-05-09T21:33:25.749Z,57.05
2023-05-09T21:35:52.745Z,57.61
2023-05-09T21:38:20.352Z,58.23
2023-05-09T21:40:47.332Z,58.66
2023-05-09T21:43:15.306Z,59.68
2023-05-09T21:45:42.322Z,59.91
2023-05-09T21:48:09.484Z,59.93
2023-05-09T21:50:36.620Z,59.74
2023-05-09T21:53:04.076Z,59.79
2023-05-09T21:55:31.724Z,58.11
2023-05-09T21:57:58.738Z,58.55
2023-05-09T22:00:25.778Z,58.82
2023-05-09T22:02:53.284Z,58.18
2023-05-09T22:05:20.367Z,59.41
2023-05-09T22:07:47.443Z,59.62
2023-05-09T22:10:15.320Z,60.24
2023-05-09T22:12:42.675Z,60.56
2023-05-09T22:15:11.300Z,60.95
2023-05-09T22:17:38.581Z,61.22
2023-05-09T22:20:06.535Z,59.50
2023-05-09T22:22:33.708Z,59.05
2023-05-09T22:25:00.651Z,59.06
2023-05-09T22:27:27.813Z,59.06
2023-05-09T22:29:55.657Z,59.73
2023-05-09T22:32:22.704Z,60.30
2023-05-09T22:34:49.734Z,60.78
2023-05-09T22:37:16.887Z,61.25
2023-05-09T22:39:45.797Z,61.55
2023-05-09T22:42:12.916Z,61.28
2023-05-09T22:44:40.337Z,60.16
2023-05-09T22:47:08.220Z,59.27
2023-05-09T22:49:35.962Z,59.14
2023-05-09T22:52:03.280Z,59.53
2023-05-09T22:54:31.490Z,60.35
2023-05-09T22:56:58.544Z,60.72
2023-05-09T22:59:26.727Z,60.87
2023-05-09T23:01:53.691Z,61.15
2023-05-09T23:04:20.745Z,61.68
2023-05-09T23:06:47.749Z,62.14
2023-05-09T23:09:15.074Z,60.75
2023-05-09T23:11:42.390Z,60.24
2023-05-09T23:14:09.722Z,60.20
2023-05-09T23:16:36.907Z,60.36
2023-05-09T23:19:04.548Z,60.66
2023-05-09T23:21:32.748Z,61.36
2023-05-09T23:23:59.773Z,61.24
2023-05-09T23:26:27.446Z,62.11
2023-05-09T23:28:55.625Z,61.79
2023-05-09T23:31:22.822Z,60.83
2023-05-09T23:33:50.203Z,60.29
2023-05-09T23:36:17.377Z,60.46
2023-05-09T23:38:44.334Z,60.78
2023-05-09T23:41:11.374Z,61.22
2023-05-09T23:43:38.446Z,61.56
2023-05-09T23:46:05.604Z,61.90
2023-05-09T23:48:34.883Z,61.84
2023-05-09T23:51:01.884Z,62.89
2023-05-09T23:53:29.335Z,61.79
2023-05-09T23:55:56.454Z,61.26
2023-05-09T23:58:23.522Z,60.94
